sensor_id;sensor_type;location;lat;lon;timestamp;pressure;altitude;pressure_sealevel;temperature;humidity
69035;BME280;56091;55.756;37.412;2022-11-20T00:02:50;98990.28;;;-2.06;81.43
69035;BME280;56091;55.756;37.412;2022-11-20T00:07:54;98973.84;;;-2.17;81.04
69035;BME280;56091;55.756;37.412;2022-11-20T00:12:55;98988.09;;;-2.18;81.29
69035;BME280;56091;55.756;37.412;2022-11-20T00:17:56;98987.97;;;-2.24;81.27
69035;BME280;56091;55.756;37.412;2022-11-20T00:22:58;98990.09;;;-2.20;81.47
69035;BME280;56091;55.756;37.412;2022-11-20T00:27:58;98984.81;;;-2.20;81.47
69035;BME280;56091;55.756;37.412;2022-11-20T00:32:59;98993.81;;;-2.29;80.72
69035;BME280;56091;55.756;37.412;2022-11-20T00:38:00;98990.09;;;-2.20;80.61
69035;BME280;56091;55.756;37.412;2022-11-20T00:43:01;98996.34;;;-2.21;80.83
69035;BME280;56091;55.756;37.412;2022-11-20T00:48:01;98987.16;;;-2.25;80.63
69035;BME280;56091;55.756;37.412;2022-11-20T00:53:05;98996.63;;;-2.30;80.96
69035;BME280;56091;55.756;37.412;2022-11-20T00:58:06;98994.22;;;-2.40;81.15
69035;BME280;56091;55.756;37.412;2022-11-20T01:03:07;98983.44;;;-2.53;81.17
69035;BME280;56091;55.756;37.412;2022-11-20T01:08:08;99000.16;;;-2.38;81.24
69035;BME280;56091;55.756;37.412;2022-11-20T01:13:08;98995.16;;;-2.33;80.50
69035;BME280;56091;55.756;37.412;2022-11-20T01:18:28;98997.75;;;-2.48;79.93
69035;BME280;56091;55.756;37.412;2022-11-20T01:23:33;98992.56;;;-2.41;79.66
69035;BME280;56091;55.756;37.412;2022-11-20T01:28:34;98976.38;;;-2.38;79.25
69035;BME280;56091;55.756;37.412;2022-11-20T01:33:35;98988.13;;;-2.26;78.08
69035;BME280;56091;55.756;37.412;2022-11-20T01:38:36;98999.63;;;-2.19;78.03
69035;BME280;56091;55.756;37.412;2022-11-20T01:43:37;98995.84;;;-2.16;77.91
69035;BME280;56091;55.756;37.412;2022-11-20T01:48:49;99002.97;;;-2.40;77.58
69035;BME280;56091;55.756;37.412;2022-11-20T01:53:57;99008.00;;;-2.30;77.68
69035;BME280;56091;55.756;37.412;2022-11-20T01:59:02;99015.56;;;-2.27;77.93
69035;BME280;56091;55.756;37.412;2022-11-20T02:04:05;99028.56;;;-2.40;78.05
69035;BME280;56091;55.756;37.412;2022-11-20T02:09:07;99031.03;;;-2.39;78.33
69035;BME280;56091;55.756;37.412;2022-11-20T02:14:09;99037.72;;;-2.51;78.34
69035;BME280;56091;55.756;37.412;2022-11-20T02:19:20;99043.41;;;-2.39;78.42
69035;BME280;56091;55.756;37.412;2022-11-20T02:24:22;99042.41;;;-2.38;78.50
69035;BME280;56091;55.756;37.412;2022-11-20T02:29:33;99049.59;;;-2.24;78.48
69035;BME280;56091;55.756;37.412;2022-11-20T02:34:35;99049.47;;;-2.30;78.30
69035;BME280;56091;55.756;37.412;2022-11-20T02:39:36;99054.56;;;-2.29;78.10
69035;BME280;56091;55.756;37.412;2022-11-20T02:44:37;99042.56;;;-2.17;78.12
69035;BME280;56091;55.756;37.412;2022-11-20T02:49:38;99055.03;;;-2.25;78.05
69035;BME280;56091;55.756;37.412;2022-11-20T02:54:39;99056.88;;;-2.11;77.77
69035;BME280;56091;55.756;37.412;2022-11-20T02:59:42;99046.56;;;-2.21;77.19
69035;BME280;56091;55.756;37.412;2022-11-20T03:04:43;99069.38;;;-2.20;77.25
69035;BME280;56091;55.756;37.412;2022-11-20T03:09:44;99070.00;;;-2.18;77.49
69035;BME280;56091;55.756;37.412;2022-11-20T03:14:45;99069.84;;;-2.16;77.37
69035;BME280;56091;55.756;37.412;2022-11-20T03:19:45;99067.59;;;-2.04;76.61
69035;BME280;56091;55.756;37.412;2022-11-20T03:24:47;99061.84;;;-2.08;76.44
69035;BME280;56091;55.756;37.412;2022-11-20T03:29:47;99051.34;;;-2.16;76.33
69035;BME280;56091;55.756;37.412;2022-11-20T03:34:48;99077.34;;;-1.90;75.93
69035;BME280;56091;55.756;37.412;2022-11-20T03:39:49;99066.19;;;-2.15;75.75
69035;BME280;56091;55.756;37.412;2022-11-20T03:44:50;99078.03;;;-2.11;75.78
69035;BME280;56091;55.756;37.412;2022-11-20T03:49:50;99077.06;;;-2.10;75.79
69035;BME280;56091;55.756;37.412;2022-11-20T03:54:51;99078.03;;;-2.11;75.56
69035;BME280;56091;55.756;37.412;2022-11-20T03:59:52;99096.13;;;-2.00;75.51
69035;BME280;56091;55.756;37.412;2022-11-20T04:04:53;99096.13;;;-2.00;75.42
69035;BME280;56091;55.756;37.412;2022-11-20T04:09:54;99097.09;;;-2.16;75.67
69035;BME280;56091;55.756;37.412;2022-11-20T04:14:54;99100.91;;;-2.18;75.54
69035;BME280;56091;55.756;37.412;2022-11-20T04:19:55;99105.97;;;-2.08;75.42
69035;BME280;56091;55.756;37.412;2022-11-20T04:24:56;99121.91;;;-2.02;75.30
69035;BME280;56091;55.756;37.412;2022-11-20T04:29:57;99116.47;;;-2.00;74.88
69035;BME280;56091;55.756;37.412;2022-11-20T04:34:58;99121.31;;;-1.89;75.12
69035;BME280;56091;55.756;37.412;2022-11-20T04:39:58;99120.13;;;-1.86;74.70
69035;BME280;56091;55.756;37.412;2022-11-20T04:44:59;99130.78;;;-1.94;74.50
69035;BME280;56091;55.756;37.412;2022-11-20T04:50:00;99142.53;;;-1.74;74.62
69035;BME280;56091;55.756;37.412;2022-11-20T04:55:01;99086.81;;;-2.10;73.92
69035;BME280;56091;55.756;37.412;2022-11-20T05:00:04;99156.78;;;-1.60;73.78
69035;BME280;56091;55.756;37.412;2022-11-20T05:05:05;99158.22;;;-1.72;74.20
69035;BME280;56091;55.756;37.412;2022-11-20T05:10:06;99161.06;;;-1.97;74.78
69035;BME280;56091;55.756;37.412;2022-11-20T05:15:07;99160.13;;;-2.04;75.12
69035;BME280;56091;55.756;37.412;2022-11-20T05:20:09;99183.13;;;-1.90;75.45
69035;BME280;56091;55.756;37.412;2022-11-20T05:25:10;99180.28;;;-1.80;75.33
69035;BME280;56091;55.756;37.412;2022-11-20T05:30:14;99174.13;;;-1.81;74.77
69035;BME280;56091;55.756;37.412;2022-11-20T05:35:15;99189.75;;;-1.71;75.02
69035;BME280;56091;55.756;37.412;2022-11-20T05:40:16;99195.13;;;-1.79;75.07
69035;BME280;56091;55.756;37.412;2022-11-20T05:45:17;99200.22;;;-1.54;75.14
69035;BME280;56091;55.756;37.412;2022-11-20T05:50:20;99204.88;;;-1.57;74.66
69035;BME280;56091;55.756;37.412;2022-11-20T05:55:21;99188.44;;;-1.67;74.77
69035;BME280;56091;55.756;37.412;2022-11-20T06:00:22;99220.63;;;-1.63;75.49
69035;BME280;56091;55.756;37.412;2022-11-20T06:05:23;99240.06;;;-1.56;75.30
69035;BME280;56091;55.756;37.412;2022-11-20T06:10:24;99231.72;;;-1.45;75.14
69035;BME280;56091;55.756;37.412;2022-11-20T06:15:25;99239.59;;;-1.36;75.06
69035;BME280;56091;55.756;37.412;2022-11-20T06:20:25;99245.16;;;-1.31;74.37
69035;BME280;56091;55.756;37.412;2022-11-20T06:25:26;99257.63;;;-1.17;74.06
69035;BME280;56091;55.756;37.412;2022-11-20T06:30:27;99266.59;;;-1.03;73.55
69035;BME280;56091;55.756;37.412;2022-11-20T06:35:28;99266.50;;;-0.95;72.63
69035;BME280;56091;55.756;37.412;2022-11-20T06:40:29;99256.00;;;-1.03;71.70
69035;BME280;56091;55.756;37.412;2022-11-20T06:45:30;99261.50;;;-0.90;71.33
69035;BME280;56091;55.756;37.412;2022-11-20T06:50:30;99261.75;;;-1.00;71.47
69035;BME280;56091;55.756;37.412;2022-11-20T06:55:36;99260.50;;;-0.89;70.91
69035;BME280;56091;55.756;37.412;2022-11-20T07:00:37;99254.25;;;-1.11;70.62
69035;BME280;56091;55.756;37.412;2022-11-20T07:05:38;99257.75;;;-0.95;71.22
69035;BME280;56091;55.756;37.412;2022-11-20T07:10:40;99263.03;;;-0.95;70.60
69035;BME280;56091;55.756;37.412;2022-11-20T07:15:41;99255.69;;;-0.85;70.33
69035;BME280;56091;55.756;37.412;2022-11-20T07:20:42;99189.16;;;-1.05;70.10
69035;BME280;56091;55.756;37.412;2022-11-20T07:25:43;99257.50;;;-0.71;69.79
69035;BME280;56091;55.756;37.412;2022-11-20T07:30:52;99267.28;;;-0.56;70.30
69035;BME280;56091;55.756;37.412;2022-11-20T07:35:58;99289.59;;;-0.36;69.58
69035;BME280;56091;55.756;37.412;2022-11-20T07:40:59;99274.94;;;-0.32;68.71
69035;BME280;56091;55.756;37.412;2022-11-20T07:46:01;99281.69;;;-0.29;68.46
69035;BME280;56091;55.756;37.412;2022-11-20T07:51:04;99281.50;;;-0.13;68.42
69035;BME280;56091;55.756;37.412;2022-11-20T07:56:05;99287.91;;;-0.07;67.73
69035;BME280;56091;55.756;37.412;2022-11-20T08:01:07;99276.44;;;-0.08;68.19
69035;BME280;56091;55.756;37.412;2022-11-20T08:06:08;99291.97;;;0.10;67.56
69035;BME280;56091;55.756;37.412;2022-11-20T08:11:10;99279.66;;;0.03;67.73
69035;BME280;56091;55.756;37.412;2022-11-20T08:16:32;99290.94;;;0.11;67.12
69035;BME280;56091;55.756;37.412;2022-11-20T08:21:40;99309.03;;;0.23;66.50
69035;BME280;56091;55.756;37.412;2022-11-20T08:26:41;99293.47;;;0.34;66.68
69035;BME280;56091;55.756;37.412;2022-11-20T08:31:42;99316.41;;;0.42;66.38
69035;BME280;56091;55.756;37.412;2022-11-20T08:36:43;99322.34;;;0.44;66.02
69035;BME280;56091;55.756;37.412;2022-11-20T08:41:46;99312.38;;;0.46;65.97
69035;BME280;56091;55.756;37.412;2022-11-20T08:46:50;99327.28;;;0.47;66.05
69035;BME280;56091;55.756;37.412;2022-11-20T08:51:50;99327.56;;;0.37;65.97
69035;BME280;56091;55.756;37.412;2022-11-20T08:56:54;99339.09;;;0.45;66.13
69035;BME280;56091;55.756;37.412;2022-11-20T09:01:54;99354.38;;;0.43;66.39
69035;BME280;56091;55.756;37.412;2022-11-20T09:06:55;99361.09;;;0.38;66.46
69035;BME280;56091;55.756;37.412;2022-11-20T09:11:56;99371.38;;;0.27;67.08
69035;BME280;56091;55.756;37.412;2022-11-20T09:16:57;99380.03;;;0.21;67.69
69035;BME280;56091;55.756;37.412;2022-11-20T09:21:58;99396.81;;;-0.24;69.57
69035;BME280;56091;55.756;37.412;2022-11-20T09:27:04;99400.63;;;-0.41;70.85
69035;BME280;56091;55.756;37.412;2022-11-20T09:32:05;99418.44;;;-0.35;70.81
69035;BME280;56091;55.756;37.412;2022-11-20T09:37:06;99414.78;;;-0.49;71.06
69035;BME280;56091;55.756;37.412;2022-11-20T09:42:17;99407.78;;;-0.65;72.31
69035;BME280;56091;55.756;37.412;2022-11-20T09:58:35;99413.25;;;-1.04;74.70
69035;BME280;56091;55.756;37.412;2022-11-20T10:03:58;99426.53;;;-1.12;74.88
69035;BME280;56091;55.756;37.412;2022-11-20T10:14:34;99432.19;;;-0.92;74.19
69035;BME280;56091;55.756;37.412;2022-11-20T10:25:18;99434.94;;;-1.09;74.41
69035;BME280;56091;55.756;37.412;2022-11-20T10:30:23;99439.91;;;-1.06;74.78
69035;BME280;56091;55.756;37.412;2022-11-20T10:35:35;99441.53;;;-1.05;74.62
69035;BME280;56091;55.756;37.412;2022-11-20T10:40:41;99441.66;;;-1.21;75.36
69035;BME280;56091;55.756;37.412;2022-11-20T10:56:17;99470.34;;;-1.41;75.71
69035;BME280;56091;55.756;37.412;2022-11-20T11:01:20;99479.03;;;-1.55;76.31
69035;BME280;56091;55.756;37.412;2022-11-20T11:06:27;99476.34;;;-1.47;75.38
69035;BME280;56091;55.756;37.412;2022-11-20T11:11:30;99485.91;;;-1.38;72.97
69035;BME280;56091;55.756;37.412;2022-11-20T11:16:33;99490.22;;;-1.45;72.38
69035;BME280;56091;55.756;37.412;2022-11-20T11:21:35;99487.69;;;-1.39;73.40
69035;BME280;56091;55.756;37.412;2022-11-20T11:26:52;99487.06;;;-1.41;72.77
69035;BME280;56091;55.756;37.412;2022-11-20T11:32:23;99493.19;;;-1.40;71.58
69035;BME280;56091;55.756;37.412;2022-11-20T11:37:36;99494.34;;;-1.43;70.31
69035;BME280;56091;55.756;37.412;2022-11-20T11:42:42;99490.03;;;-1.35;70.46
69035;BME280;56091;55.756;37.412;2022-11-20T11:47:45;99486.03;;;-1.31;71.14
69035;BME280;56091;55.756;37.412;2022-11-20T11:53:11;99489.31;;;-1.21;70.37
69035;BME280;56091;55.756;37.412;2022-11-20T12:03:39;99502.81;;;-1.16;69.92
69035;BME280;56091;55.756;37.412;2022-11-20T12:08:53;99500.53;;;-1.19;69.83
69035;BME280;56091;55.756;37.412;2022-11-20T12:14:16;99511.69;;;-1.32;69.92
69035;BME280;56091;55.756;37.412;2022-11-20T12:19:24;99502.94;;;-1.41;70.43
69035;BME280;56091;55.756;37.412;2022-11-20T12:30:00;99504.75;;;-1.41;69.43
69035;BME280;56091;55.756;37.412;2022-11-20T12:40:31;99502.28;;;-1.34;68.79
69035;BME280;56091;55.756;37.412;2022-11-20T12:45:46;99495.66;;;-1.39;68.32
69035;BME280;56091;55.756;37.412;2022-11-20T13:07:16;99517.91;;;-1.64;69.29
69035;BME280;56091;55.756;37.412;2022-11-20T13:12:25;99528.16;;;-1.69;69.68
69035;BME280;56091;55.756;37.412;2022-11-20T13:17:40;99529.28;;;-1.47;69.58
69035;BME280;56091;55.756;37.412;2022-11-20T13:22:48;99518.41;;;-1.61;69.32
69035;BME280;56091;55.756;37.412;2022-11-20T13:27:50;99513.19;;;-1.85;70.08
69035;BME280;56091;55.756;37.412;2022-11-20T13:33:03;99533.50;;;-1.78;70.68
69035;BME280;56091;55.756;37.412;2022-11-20T13:38:12;99523.44;;;-1.99;70.81
69035;BME280;56091;55.756;37.412;2022-11-20T13:48:45;99544.75;;;-1.84;70.74
69035;BME280;56091;55.756;37.412;2022-11-20T13:59:13;99556.81;;;-1.89;70.50
69035;BME280;56091;55.756;37.412;2022-11-20T14:04:28;99549.72;;;-2.05;70.37
69035;BME280;56091;55.756;37.412;2022-11-20T14:09:32;99557.63;;;-1.89;70.61
69035;BME280;56091;55.756;37.412;2022-11-20T14:14:33;99552.03;;;-1.86;70.77
69035;BME280;56091;55.756;37.412;2022-11-20T14:19:41;99573.31;;;-1.79;71.01
69035;BME280;56091;55.756;37.412;2022-11-20T14:24:42;99583.75;;;-1.86;71.29
69035;BME280;56091;55.756;37.412;2022-11-20T14:29:45;99586.72;;;-1.81;70.66
69035;BME280;56091;55.756;37.412;2022-11-20T14:34:48;99560.13;;;-2.04;70.56
69035;BME280;56091;55.756;37.412;2022-11-20T14:39:52;99572.50;;;-1.96;71.21
69035;BME280;56091;55.756;37.412;2022-11-20T14:44:58;99572.50;;;-1.96;70.56
69035;BME280;56091;55.756;37.412;2022-11-20T14:50:00;99593.34;;;-1.93;70.14
69035;BME280;56091;55.756;37.412;2022-11-20T14:55:04;99578.81;;;-1.97;70.72
69035;BME280;56091;55.756;37.412;2022-11-20T15:05:12;99585.91;;;-1.81;70.30
69035;BME280;56091;55.756;37.412;2022-11-20T15:10:23;99581.59;;;-1.90;70.14
69035;BME280;56091;55.756;37.412;2022-11-20T15:15:35;99581.44;;;-1.89;70.43
69035;BME280;56091;55.756;37.412;2022-11-20T15:20:37;99583.09;;;-1.80;70.62
69035;BME280;56091;55.756;37.412;2022-11-20T15:25:39;99586.22;;;-1.84;70.76
69035;BME280;56091;55.756;37.412;2022-11-20T15:30:40;99566.22;;;-1.87;70.48
69035;BME280;56091;55.756;37.412;2022-11-20T15:35:42;99541.28;;;-1.92;70.04
69035;BME280;56091;55.756;37.412;2022-11-20T15:40:42;99571.84;;;-1.82;70.13
69035;BME280;56091;55.756;37.412;2022-11-20T15:45:49;99577.31;;;-1.83;70.57
69035;BME280;56091;55.756;37.412;2022-11-20T15:51:06;99577.66;;;-1.94;70.76
69035;BME280;56091;55.756;37.412;2022-11-20T15:56:12;99560.78;;;-1.85;70.54
69035;BME280;56091;55.756;37.412;2022-11-20T16:01:15;99593.00;;;-1.73;70.08
69035;BME280;56091;55.756;37.412;2022-11-20T16:06:16;99589.53;;;-1.82;70.01
69035;BME280;56091;55.756;37.412;2022-11-20T16:11:18;99582.41;;;-1.90;70.17
69035;BME280;56091;55.756;37.412;2022-11-20T16:16:20;99592.84;;;-1.88;70.33
69035;BME280;56091;55.756;37.412;2022-11-20T16:21:22;99582.06;;;-1.79;70.10
69035;BME280;56091;55.756;37.412;2022-11-20T16:26:31;99571.16;;;-1.67;69.69
69035;BME280;56091;55.756;37.412;2022-11-20T16:31:32;99534.88;;;-2.06;70.33
69035;BME280;56091;55.756;37.412;2022-11-20T16:36:34;99568.84;;;-1.79;69.73
69035;BME280;56091;55.756;37.412;2022-11-20T16:41:34;99559.47;;;-1.89;69.55
69035;BME280;56091;55.756;37.412;2022-11-20T16:46:37;99560.44;;;-1.74;69.90
69035;BME280;56091;55.756;37.412;2022-11-20T16:51:38;99599.78;;;-1.87;69.61
69035;BME280;56091;55.756;37.412;2022-11-20T16:56:39;99582.25;;;-1.88;69.35
69035;BME280;56091;55.756;37.412;2022-11-20T17:01:40;99591.03;;;-1.96;70.07
69035;BME280;56091;55.756;37.412;2022-11-20T17:06:43;99583.41;;;-1.83;69.60
69035;BME280;56091;55.756;37.412;2022-11-20T17:11:44;99580.59;;;-1.81;69.77
69035;BME280;56091;55.756;37.412;2022-11-20T17:16:45;99562.91;;;-1.81;69.23
69035;BME280;56091;55.756;37.412;2022-11-20T17:21:46;99574.47;;;-1.90;69.63
69035;BME280;56091;55.756;37.412;2022-11-20T17:26:47;99556.00;;;-2.23;70.15
69035;BME280;56091;55.756;37.412;2022-11-20T17:31:49;99571.22;;;-2.08;70.34
69035;BME280;56091;55.756;37.412;2022-11-20T17:36:50;99582.44;;;-1.98;70.12
69035;BME280;56091;55.756;37.412;2022-11-20T17:41:50;99591.00;;;-1.88;70.08
69035;BME280;56091;55.756;37.412;2022-11-20T17:47:11;99600.44;;;-1.85;69.75
69035;BME280;56091;55.756;37.412;2022-11-20T17:52:13;99586.06;;;-1.91;70.32
69035;BME280;56091;55.756;37.412;2022-11-20T17:57:13;99590.69;;;-1.93;70.47
69035;BME280;56091;55.756;37.412;2022-11-20T18:02:33;99584.75;;;-2.03;71.00
69035;BME280;56091;55.756;37.412;2022-11-20T18:07:34;99564.59;;;-2.04;71.00
69035;BME280;56091;55.756;37.412;2022-11-20T18:12:37;99567.91;;;-1.86;71.00
69035;BME280;56091;55.756;37.412;2022-11-20T18:17:38;99554.81;;;-1.79;70.64
69035;BME280;56091;55.756;37.412;2022-11-20T18:22:39;99565.38;;;-1.63;70.49
69035;BME280;56091;55.756;37.412;2022-11-20T18:27:39;99568.28;;;-1.41;70.01
69035;BME280;56091;55.756;37.412;2022-11-20T18:32:40;99595.53;;;-1.24;69.71
69035;BME280;56091;55.756;37.412;2022-11-20T18:37:42;99593.69;;;-1.15;69.07
69035;BME280;56091;55.756;37.412;2022-11-20T18:42:42;99591.03;;;-1.15;68.83
69035;BME280;56091;55.756;37.412;2022-11-20T18:48:16;99600.41;;;-1.05;68.73
69035;BME280;56091;55.756;37.412;2022-11-20T18:53:16;99607.69;;;-0.99;68.30
69035;BME280;56091;55.756;37.412;2022-11-20T18:58:17;99596.78;;;-1.04;68.22
69035;BME280;56091;55.756;37.412;2022-11-20T19:03:21;99593.28;;;-0.96;68.03
69035;BME280;56091;55.756;37.412;2022-11-20T19:08:22;99570.31;;;-1.04;68.16
69035;BME280;56091;55.756;37.412;2022-11-20T19:13:23;99564.09;;;-0.88;67.58
69035;BME280;56091;55.756;37.412;2022-11-20T19:18:23;99565.09;;;-0.89;67.22
69035;BME280;56091;55.756;37.412;2022-11-20T19:23:26;99566.31;;;-1.00;67.59
69035;BME280;56091;55.756;37.412;2022-11-20T19:28:34;99552.84;;;-0.90;67.18
69035;BME280;56091;55.756;37.412;2022-11-20T19:33:35;99560.28;;;-0.85;66.28
69035;BME280;56091;55.756;37.412;2022-11-20T19:38:39;99536.06;;;-0.82;65.53
69035;BME280;56091;55.756;37.412;2022-11-20T19:43:43;99550.84;;;-0.88;65.26
69035;BME280;56091;55.756;37.412;2022-11-20T19:48:52;99547.22;;;-0.87;65.09
69035;BME280;56091;55.756;37.412;2022-11-20T19:53:55;99544.50;;;-0.79;64.54
69035;BME280;56091;55.756;37.412;2022-11-20T19:58:56;99561.03;;;-0.76;64.63
69035;BME280;56091;55.756;37.412;2022-11-20T20:03:58;99561.56;;;-0.81;64.04
69035;BME280;56091;55.756;37.412;2022-11-20T20:09:07;99565.69;;;-0.79;63.73
69035;BME280;56091;55.756;37.412;2022-11-20T20:14:14;99584.41;;;-0.80;64.24
69035;BME280;56091;55.756;37.412;2022-11-20T20:19:15;99585.91;;;-0.77;64.62
69035;BME280;56091;55.756;37.412;2022-11-20T20:24:16;99591.16;;;-0.69;64.62
69035;BME280;56091;55.756;37.412;2022-11-20T20:29:17;99595.25;;;-0.67;64.46
69035;BME280;56091;55.756;37.412;2022-11-20T20:34:23;99582.66;;;-0.65;64.60
69035;BME280;56091;55.756;37.412;2022-11-20T20:39:31;99595.81;;;-0.71;64.77
69035;BME280;56091;55.756;37.412;2022-11-20T20:44:32;99576.47;;;-0.80;64.91
69035;BME280;56091;55.756;37.412;2022-11-20T20:49:52;99572.66;;;-0.77;65.31
69035;BME280;56091;55.756;37.412;2022-11-20T20:54:53;99595.16;;;-0.73;65.32
69035;BME280;56091;55.756;37.412;2022-11-20T20:59:54;99575.16;;;-0.84;65.74
69035;BME280;56091;55.756;37.412;2022-11-20T21:04:55;99581.38;;;-0.69;65.87
69035;BME280;56091;55.756;37.412;2022-11-20T21:09:56;99577.50;;;-0.58;65.13
69035;BME280;56091;55.756;37.412;2022-11-20T21:14:56;99580.66;;;-0.63;65.14
69035;BME280;56091;55.756;37.412;2022-11-20T21:19:57;99586.81;;;-0.62;64.92
69035;BME280;56091;55.756;37.412;2022-11-20T21:24:58;99589.06;;;-0.51;64.82
69035;BME280;56091;55.756;37.412;2022-11-20T21:29:59;99592.53;;;-0.50;64.35
69035;BME280;56091;55.756;37.412;2022-11-20T21:35:00;99585.28;;;-0.56;64.38
69035;BME280;56091;55.756;37.412;2022-11-20T21:40:03;99573.56;;;-0.62;64.04
69035;BME280;56091;55.756;37.412;2022-11-20T21:45:04;99567.94;;;-0.67;64.38
69035;BME280;56091;55.756;37.412;2022-11-20T21:50:08;99562.47;;;-0.66;64.86
69035;BME280;56091;55.756;37.412;2022-11-20T21:55:10;99572.50;;;-0.53;65.08
69035;BME280;56091;55.756;37.412;2022-11-20T22:00:13;99578.69;;;-0.61;65.81
69035;BME280;56091;55.756;37.412;2022-11-20T22:05:17;99544.91;;;-0.90;66.26
69035;BME280;56091;55.756;37.412;2022-11-20T22:10:17;99593.50;;;-0.51;66.50
69035;BME280;56091;55.756;37.412;2022-11-20T22:15:25;99589.56;;;-0.55;66.18
69035;BME280;56091;55.756;37.412;2022-11-20T22:20:28;99579.50;;;-0.60;66.09
69035;BME280;56091;55.756;37.412;2022-11-20T22:25:29;99581.13;;;-0.59;66.14
69035;BME280;56091;55.756;37.412;2022-11-20T22:30:33;99559.69;;;-0.72;65.21
69035;BME280;56091;55.756;37.412;2022-11-20T22:35:34;99577.91;;;-0.69;65.59
69035;BME280;56091;55.756;37.412;2022-11-20T22:40:34;99570.75;;;-0.69;65.25
69035;BME280;56091;55.756;37.412;2022-11-20T22:45:35;99568.66;;;-0.73;65.98
69035;BME280;56091;55.756;37.412;2022-11-20T22:50:36;99569.78;;;-0.68;65.75
69035;BME280;56091;55.756;37.412;2022-11-20T22:55:37;99572.38;;;-0.60;65.33
69035;BME280;56091;55.756;37.412;2022-11-20T23:00:38;99563.84;;;-0.70;64.58
69035;BME280;56091;55.756;37.412;2022-11-20T23:05:38;99551.06;;;-0.66;64.81
69035;BME280;56091;55.756;37.412;2022-11-20T23:10:39;99549.09;;;-0.72;65.23
69035;BME280;56091;55.756;37.412;2022-11-20T23:15:40;99545.47;;;-0.71;65.12
69035;BME280;56091;55.756;37.412;2022-11-20T23:20:41;99520.50;;;-0.77;65.87
69035;BME280;56091;55.756;37.412;2022-11-20T23:25:41;99520.66;;;-0.79;66.02
69035;BME280;56091;55.756;37.412;2022-11-20T23:30:45;99525.66;;;-0.84;66.63
69035;BME280;56091;55.756;37.412;2022-11-20T23:35:47;99525.97;;;-0.79;66.58
69035;BME280;56091;55.756;37.412;2022-11-20T23:40:48;99530.53;;;-0.72;66.54
69035;BME280;56091;55.756;37.412;2022-11-20T23:45:52;99537.16;;;-0.68;67.15
69035;BME280;56091;55.756;37.412;2022-11-20T23:50:53;99519.38;;;-0.83;66.95
69035;BME280;56091;55.756;37.412;2022-11-20T23:55:58;99518.81;;;-0.78;67.15
